Aérodrome :
LOGIN :

S'inscrire | Disclaimer

   EN    FR    IT 

 










Légende :    VFR   VFR Marginal   IFR   IFR Intensif   IFR Très Intensif
Visi : 
Plafond : 
>= 8 km
>= 3000ft
5 à 8 km
1000 à 3000 ft
1500m à 5 km
500 à 1000 ft
800 à 1500m
200 à 500 ft
< 800m
< 200 ft
Symboles :   Orages  Brouillard  Fortes neiges  Fortes précipitations  Vent > 20 kt
SIGMETs :   Divers  Orages  Givrage  Turbulence  Onde Orograph.  Cendres Volcan.






- Altitude de l'aérodrome : 1115 ft
- Code IATA : GRZ


LOWG - Graz

DERNIER METAR :
  • 221550Z 15004KT CAVOK M03/M05 Q1029 R17/15//95 NOSIG

METARs EXPIRÉS :
  • 221520Z 16005KT CAVOK M02/M04 Q1029 R17/15//95 NOSIG
  • 221450Z 18006KT CAVOK M01/M04 Q1029 R17/15//95 NOSIG
  • 221420Z 18004KT CAVOK M00/M03 Q1028 R17/15//95 NOSIG
  • 221350Z 14004KT 110V180 8000 FEW010 M00/M04 Q1029 R17/15//95 NOSIG
  • 221320Z 11003KT 050V170 8000 FEW010 M01/M04 Q1029 R17/15//95 NOSIG

TAF AMD TAF LOWG
Valide du 22 à 14h jusqu'au 23 à 12h UTC


221425Z 2214/2312 16005KT CAVOK TX01/2312Z TNM06/2305Z
TEMPO 2216/2222 4000 BR BKN008
TEMPO 2222/2304 0300 FZBCFG NSC
TEMPO 2304/2312 6000 BKN014



MET'MAP, la Météo Aéronautique d'un coup d'oeil ! - Copyright ORBIFLY Décembre 2007 - Disclaimer

ORBIFLY MET'MAP TEAM :

Programmation & Développement : Alexandra Zaïnal
Sur une idée originale de : Baudouin d'Aumeries
Assistance à la programmation : Marc-Olivier Méhu
Soutien technique & logistique : Manuel Goepfert

Contact : metmap@orbifly.com




SOURCES & CREDITS :

   NOAA